createdAt,value
2017-11-03T00:00:09.735Z,24.87
2017-11-03T00:02:38.013Z,27.37
2017-11-03T00:05:06.276Z,25.93
2017-11-03T00:07:34.575Z,26.93
2017-11-03T00:10:02.856Z,25.60
2017-11-03T00:12:31.607Z,29.10
2017-11-03T00:14:59.929Z,25.70
2017-11-03T00:17:28.191Z,25.50
2017-11-03T00:19:56.455Z,27.57
2017-11-03T00:22:24.734Z,25.90
2017-11-03T00:24:53.006Z,26.23
2017-11-03T00:27:21.285Z,38.37
2017-11-03T00:29:49.964Z,40.03
2017-11-03T00:32:18.303Z,35.40
2017-11-03T00:34:46.745Z,35.30
2017-11-03T00:37:15.010Z,51.37
2017-11-03T00:39:43.301Z,37.87
2017-11-03T00:42:11.611Z,41.70
2017-11-03T00:44:39.877Z,48.60
2017-11-03T00:47:08.166Z,50.10
2017-11-03T00:49:36.461Z,50.53
2017-11-03T00:52:05.519Z,54.13
2017-11-03T00:54:33.794Z,48.20
2017-11-03T00:57:02.469Z,42.27
2017-11-03T00:59:30.744Z,51.63
2017-11-03T01:01:59.009Z,55.07
2017-11-03T01:04:27.696Z,37.70
2017-11-03T01:06:55.955Z,33.80
2017-11-03T01:09:24.231Z,49.10
2017-11-03T01:11:52.501Z,40.47
2017-11-03T01:14:20.775Z,34.83
2017-11-03T01:16:49.063Z,78.13
2017-11-03T01:19:17.324Z,38.10
2017-11-03T01:21:46.370Z,38.47
2017-11-03T01:24:14.669Z,46.70
2017-11-03T01:26:43.320Z,43.37
2017-11-03T01:29:11.583Z,49.33
2017-11-03T01:31:40.155Z,64.47
2017-11-03T01:34:09.688Z,46.13
2017-11-03T01:36:37.948Z,71.00
2017-11-03T01:39:06.231Z,37.90
2017-11-03T01:41:34.544Z,59.83
2017-11-03T01:44:02.843Z,60.40
2017-11-03T01:46:31.100Z,49.20
2017-11-03T01:48:59.367Z,66.47
2017-11-03T01:51:27.659Z,33.60
2017-11-03T01:53:56.421Z,39.73
2017-11-03T01:56:24.706Z,64.47
2017-11-03T01:58:52.973Z,50.17
2017-11-03T02:01:21.220Z,40.47
2017-11-03T02:03:50.294Z,35.23
2017-11-03T02:06:18.567Z,33.47
2017-11-03T02:08:46.852Z,29.50
2017-11-03T02:11:15.122Z,30.60
2017-11-03T02:13:43.398Z,29.23
2017-11-03T02:16:12.180Z,29.43
2017-11-03T02:18:40.439Z,25.27
2017-11-03T02:21:08.728Z,28.77
2017-11-03T02:23:37.667Z,23.70
2017-11-03T02:26:06.696Z,21.20
2017-11-03T02:28:34.969Z,22.70
2017-11-03T02:31:03.262Z,22.60
2017-11-03T02:33:31.529Z,17.90
2017-11-03T02:35:59.873Z,22.27
2017-11-03T02:38:28.912Z,22.37
2017-11-03T02:40:57.174Z,22.23
2017-11-03T02:43:25.456Z,26.67
2017-11-03T02:45:53.716Z,30.00
2017-11-03T02:48:22.006Z,30.77
2017-11-03T02:50:50.712Z,24.60
2017-11-03T02:53:18.972Z,23.00
2017-11-03T02:55:47.254Z,32.47
2017-11-03T02:58:15.507Z,23.07
2017-11-03T03:00:43.768Z,30.07
2017-11-03T03:03:12.807Z,19.93
2017-11-03T03:05:41.601Z,23.93
2017-11-03T03:08:09.856Z,24.93
2017-11-03T03:10:38.152Z,28.43
2017-11-03T03:13:06.409Z,46.73
2017-11-03T03:15:35.217Z,36.93
2017-11-03T03:18:03.517Z,24.63
2017-11-03T03:20:31.815Z,26.60
2017-11-03T03:23:00.589Z,26.20
2017-11-03T03:25:28.861Z,20.97
2017-11-03T03:27:57.141Z,21.13
2017-11-03T03:30:25.468Z,20.00
2017-11-03T03:32:54.514Z,22.50
2017-11-03T03:35:22.790Z,24.87
2017-11-03T03:37:51.062Z,20.90
2017-11-03T03:40:19.347Z,21.67
2017-11-03T03:42:47.637Z,37.10
2017-11-03T03:45:15.913Z,19.60
2017-11-03T03:47:44.237Z,24.50
2017-11-03T03:50:12.515Z,34.10
2017-11-03T03:52:41.605Z,23.43
2017-11-03T03:55:09.899Z,18.00
2017-11-03T03:57:38.155Z,31.30
2017-11-03T04:00:07.201Z,20.10
2017-11-03T04:02:35.903Z,33.70
2017-11-03T04:05:05.008Z,24.27
2017-11-03T04:07:33.283Z,26.80
2017-11-03T04:10:01.548Z,56.37
2017-11-03T04:12:29.815Z,24.27
2017-11-03T04:14:58.114Z,21.50
2017-11-03T04:17:26.367Z,22.90
2017-11-03T04:19:54.938Z,32.37
2017-11-03T04:22:23.195Z,17.20
2017-11-03T04:24:51.510Z,31.97
2017-11-03T04:27:20.567Z,18.93
2017-11-03T04:29:48.819Z,18.20
2017-11-03T04:32:17.100Z,19.20
2017-11-03T04:34:45.376Z,28.93
2017-11-03T04:37:14.125Z,19.93
2017-11-03T04:39:42.403Z,21.53
2017-11-03T04:42:10.673Z,19.30
2017-11-03T04:44:38.953Z,17.83
2017-11-03T04:47:07.227Z,20.07
2017-11-03T04:49:35.500Z,23.43
2017-11-03T04:52:03.780Z,34.93
2017-11-03T04:54:32.079Z,16.93
2017-11-03T04:57:00.333Z,44.47
2017-11-03T04:59:28.624Z,41.80
2017-11-03T05:01:56.897Z,24.97
2017-11-03T05:04:25.683Z,28.93
2017-11-03T05:06:54.499Z,32.03
2017-11-03T05:09:22.760Z,42.10
2017-11-03T05:11:51.052Z,68.20
2017-11-03T05:14:20.116Z,62.30
2017-11-03T05:16:48.378Z,55.63
2017-11-03T05:19:16.655Z,22.30
2017-11-03T05:21:44.915Z,23.90
2017-11-03T05:24:13.948Z,29.00
2017-11-03T05:26:42.376Z,24.43
2017-11-03T05:29:11.059Z,20.73
2017-11-03T05:31:39.325Z,27.77
2017-11-03T05:34:08.095Z,26.30
2017-11-03T05:36:36.376Z,18.33
2017-11-03T05:39:04.909Z,14.53
2017-11-03T05:41:33.943Z,19.70
2017-11-03T05:44:02.217Z,27.70
2017-11-03T05:46:30.491Z,16.17
2017-11-03T05:48:58.762Z,17.53
2017-11-03T05:51:27.051Z,13.13
2017-11-03T05:53:55.302Z,34.17
2017-11-03T05:56:23.573Z,39.80
2017-11-03T05:58:52.622Z,36.97
2017-11-03T06:01:20.881Z,23.13
2017-11-03T06:03:49.403Z,26.77
2017-11-03T06:06:17.664Z,16.60
2017-11-03T06:08:46.342Z,25.97
2017-11-03T06:11:14.629Z,15.13
2017-11-03T06:13:42.884Z,23.97
2017-11-03T06:16:11.160Z,21.50
2017-11-03T06:18:39.438Z,24.90
2017-11-03T06:21:07.698Z,26.60
2017-11-03T06:23:36.047Z,29.23
2017-11-03T06:26:04.891Z,27.20
2017-11-03T06:28:33.184Z,24.70
2017-11-03T06:31:01.464Z,20.40
2017-11-03T06:33:29.731Z,18.73
2017-11-03T06:35:58.007Z,30.80
2017-11-03T06:38:26.271Z,23.00
2017-11-03T06:40:54.560Z,28.47
2017-11-03T06:43:22.855Z,33.40
2017-11-03T06:45:51.882Z,60.83
2017-11-03T06:48:20.518Z,54.90
2017-11-03T06:50:48.818Z,42.43
2017-11-03T06:53:17.089Z,41.37
2017-11-03T06:55:45.454Z,51.00
2017-11-03T06:58:13.725Z,57.67
2017-11-03T07:00:41.994Z,49.93
2017-11-03T07:03:10.276Z,16.70
2017-11-03T07:05:38.541Z,45.53
2017-11-03T07:08:06.820Z,46.57
2017-11-03T07:10:35.108Z,45.77
2017-11-03T07:13:03.372Z,100.63
2017-11-03T07:15:31.636Z,65.57
2017-11-03T07:17:59.937Z,40.80
2017-11-03T07:20:28.214Z,43.17
2017-11-03T07:22:56.486Z,40.40
2017-11-03T07:25:24.759Z,28.63
2017-11-03T07:27:53.029Z,40.87
2017-11-03T07:30:22.084Z,37.87
2017-11-03T07:32:50.352Z,37.67
2017-11-03T07:35:18.603Z,26.33
2017-11-03T07:37:46.882Z,35.33
2017-11-03T07:40:15.151Z,53.00
2017-11-03T07:42:43.426Z,27.73
2017-11-03T07:45:11.696Z,32.73
2017-11-03T07:47:39.962Z,56.97
2017-11-03T07:50:08.246Z,29.43
2017-11-03T07:52:36.507Z,25.30
2017-11-03T07:55:05.550Z,31.63
2017-11-03T07:57:33.830Z,45.83
2017-11-03T08:00:02.569Z,65.30
2017-11-03T08:02:31.602Z,30.13
2017-11-03T08:05:00.329Z,32.93
2017-11-03T08:07:28.594Z,35.20
2017-11-03T08:09:56.873Z,38.50
2017-11-03T08:12:25.153Z,26.93
2017-11-03T08:14:53.415Z,49.53
2017-11-03T08:17:21.680Z,28.20
2017-11-03T08:19:49.965Z,45.00
2017-11-03T08:22:18.226Z,27.13
2017-11-03T08:24:46.504Z,40.57
2017-11-03T08:27:14.777Z,33.47
2017-11-03T08:29:43.127Z,37.77
2017-11-03T08:32:12.178Z,45.20
2017-11-03T08:34:40.439Z,63.00
2017-11-03T08:37:09.246Z,23.70
2017-11-03T08:39:37.506Z,21.20
2017-11-03T08:42:05.768Z,23.50
2017-11-03T08:44:34.043Z,19.20
2017-11-03T08:47:02.336Z,17.70
2017-11-03T08:49:30.617Z,20.30
2017-11-03T08:51:58.869Z,21.67
2017-11-03T08:54:27.906Z,21.33
2017-11-03T08:56:56.190Z,19.67
2017-11-03T08:59:24.458Z,21.60
2017-11-03T09:01:52.716Z,17.27
2017-11-03T09:04:21.003Z,19.83
2017-11-03T09:06:49.256Z,20.73
2017-11-03T09:09:17.521Z,18.50
2017-11-03T09:11:46.574Z,24.43
2017-11-03T09:14:14.838Z,19.27
2017-11-03T09:16:43.116Z,17.67
2017-11-03T09:19:11.403Z,20.60
2017-11-03T09:21:39.668Z,22.77
2017-11-03T09:24:07.955Z,19.40
2017-11-03T09:26:36.241Z,19.00
2017-11-03T09:29:04.500Z,18.97
2017-11-03T09:31:32.757Z,21.90
2017-11-03T09:34:01.054Z,21.27
2017-11-03T09:36:30.403Z,17.20
2017-11-03T09:38:58.698Z,18.90
2017-11-03T09:41:27.742Z,21.07
2017-11-03T09:43:56.023Z,19.90
2017-11-03T09:46:24.309Z,22.73
2017-11-03T09:48:52.579Z,18.50
2017-11-03T09:51:20.854Z,20.40
2017-11-03T09:53:49.145Z,20.50
2017-11-03T09:56:17.407Z,31.20
2017-11-03T09:58:45.675Z,24.00
2017-11-03T10:01:14.784Z,27.63
2017-11-03T10:03:43.050Z,22.60
2017-11-03T10:06:11.322Z,22.03
2017-11-03T10:08:39.640Z,21.20
2017-11-03T10:11:07.879Z,24.10
2017-11-03T10:13:36.146Z,29.33
2017-11-03T10:16:04.432Z,30.17
2017-11-03T10:18:32.813Z,22.20
2017-11-03T10:21:01.104Z,23.70
2017-11-03T10:23:29.368Z,20.30
2017-11-03T10:25:57.627Z,18.07
2017-11-03T10:28:25.915Z,24.30
2017-11-03T10:30:54.183Z,20.90
2017-11-03T10:33:22.797Z,27.33
2017-11-03T10:35:51.065Z,20.87
2017-11-03T10:38:19.335Z,23.00
2017-11-03T10:40:47.874Z,23.40
2017-11-03T10:43:16.161Z,19.33
2017-11-03T10:45:44.889Z,28.57
2017-11-03T10:48:13.172Z,19.60
2017-11-03T10:50:41.430Z,21.67
2017-11-03T10:53:09.704Z,23.10
2017-11-03T10:55:38.015Z,25.03
2017-11-03T10:58:06.304Z,22.30
2017-11-03T11:00:34.569Z,24.03
2017-11-03T11:03:02.842Z,28.40
2017-11-03T11:05:31.090Z,24.40
2017-11-03T11:07:59.356Z,19.70
2017-11-03T11:10:27.631Z,22.93
2017-11-03T11:12:55.893Z,19.00
2017-11-03T11:15:24.143Z,30.13
2017-11-03T11:17:52.433Z,23.53
2017-11-03T11:20:20.683Z,19.50
2017-11-03T11:22:48.959Z,24.70
2017-11-03T11:25:17.240Z,28.83
2017-11-03T11:27:45.531Z,22.90
2017-11-03T11:30:14.221Z,30.53
2017-11-03T11:32:42.893Z,28.87
2017-11-03T11:35:11.163Z,23.10
2017-11-03T11:37:39.443Z,24.77
2017-11-03T11:40:07.712Z,23.83
2017-11-03T11:42:35.976Z,39.70
2017-11-03T11:45:04.271Z,31.00
2017-11-03T11:47:32.546Z,35.87
2017-11-03T11:50:00.821Z,25.13
2017-11-03T11:52:29.150Z,21.87
2017-11-03T11:54:57.436Z,23.83
2017-11-03T11:57:26.476Z,23.33
2017-11-03T11:59:54.765Z,24.17
2017-11-03T12:02:23.043Z,31.27
2017-11-03T12:04:51.633Z,21.60
2017-11-03T12:07:19.906Z,23.97
2017-11-03T12:09:48.188Z,23.90
2017-11-03T12:12:16.516Z,20.23
2017-11-03T12:14:44.795Z,23.07
2017-11-03T12:17:13.856Z,38.87
2017-11-03T12:19:42.134Z,21.43
2017-11-03T12:22:10.410Z,22.47
2017-11-03T12:24:38.697Z,17.33
2017-11-03T12:27:06.981Z,21.23
2017-11-03T12:29:35.261Z,25.30
2017-11-03T12:32:03.994Z,25.03
2017-11-03T12:34:32.291Z,14.50
2017-11-03T12:37:00.545Z,10.43
2017-11-03T12:39:28.823Z,14.10
2017-11-03T12:41:57.097Z,12.30
2017-11-03T12:44:25.373Z,22.77
2017-11-03T12:46:53.656Z,11.53
2017-11-03T12:49:21.916Z,10.60
2017-11-03T12:51:50.220Z,17.33
2017-11-03T12:54:18.494Z,13.60
2017-11-03T12:56:46.753Z,14.00
2017-11-03T12:59:15.061Z,13.43
2017-11-03T13:01:43.335Z,15.43
2017-11-03T13:04:11.620Z,9.10
2017-11-03T13:06:39.892Z,15.90
2017-11-03T13:09:08.158Z,12.23
2017-11-03T13:11:36.448Z,9.53
2017-11-03T13:14:04.728Z,13.03
2017-11-03T13:16:33.301Z,10.20
2017-11-03T13:19:01.567Z,13.37
2017-11-03T13:21:29.837Z,10.53
2017-11-03T13:23:58.892Z,12.47
2017-11-03T13:26:27.176Z,12.40
2017-11-03T13:28:55.482Z,11.57
2017-11-03T13:31:23.761Z,25.83
2017-11-03T13:33:52.787Z,18.37
2017-11-03T13:36:21.066Z,17.70
2017-11-03T13:38:49.327Z,24.47
2017-11-03T13:41:17.629Z,14.60
2017-11-03T13:43:45.902Z,14.17
2017-11-03T13:46:14.161Z,13.80
2017-11-03T13:48:42.449Z,14.10
2017-11-03T13:51:10.766Z,11.67
2017-11-03T13:53:39.339Z,15.30
2017-11-03T13:56:08.428Z,16.87
2017-11-03T13:58:36.704Z,17.60
2017-11-03T14:01:04.986Z,18.77
2017-11-03T14:03:33.266Z,17.20
2017-11-03T14:06:01.548Z,13.23
2017-11-03T14:08:29.810Z,10.67
2017-11-03T14:10:58.095Z,14.27
2017-11-03T14:13:26.381Z,24.03
2017-11-03T14:15:54.655Z,13.43
2017-11-03T14:18:22.919Z,16.90
2017-11-03T14:20:51.198Z,30.67
2017-11-03T14:23:19.485Z,24.53
2017-11-03T14:25:47.749Z,18.50
2017-11-03T14:28:16.427Z,19.27
2017-11-03T14:30:44.738Z,29.70
2017-11-03T14:33:13.015Z,21.57
2017-11-03T14:35:41.306Z,18.87
2017-11-03T14:38:09.614Z,21.03
2017-11-03T14:40:38.668Z,23.33
2017-11-03T14:43:06.961Z,22.30
2017-11-03T14:45:35.223Z,20.37
2017-11-03T14:48:03.500Z,18.20
2017-11-03T14:50:32.169Z,20.57
2017-11-03T14:53:00.441Z,18.20
2017-11-03T14:55:28.711Z,21.13
2017-11-03T14:57:57.000Z,25.27
2017-11-03T15:00:25.273Z,18.93
2017-11-03T15:02:53.538Z,21.27
2017-11-03T15:05:21.842Z,13.70
2017-11-03T15:07:50.123Z,21.47
2017-11-03T15:10:18.407Z,23.93
2017-11-03T15:12:46.702Z,24.33
2017-11-03T15:15:14.983Z,14.73
2017-11-03T15:17:43.268Z,14.70
2017-11-03T15:20:11.538Z,18.73
2017-11-03T15:22:40.689Z,13.53
2017-11-03T15:25:08.972Z,11.37
2017-11-03T15:27:37.242Z,15.03
2017-11-03T15:30:05.518Z,20.93
2017-11-03T15:32:33.805Z,15.40
2017-11-03T15:35:02.086Z,18.83
2017-11-03T15:37:30.380Z,16.17
2017-11-03T15:39:58.668Z,14.57
2017-11-03T15:42:26.928Z,12.57
2017-11-03T15:44:55.182Z,17.80
2017-11-03T15:47:23.470Z,11.40
2017-11-03T15:49:51.749Z,23.17
2017-11-03T15:52:20.022Z,16.53
2017-11-03T15:54:48.326Z,13.43
2017-11-03T15:57:16.634Z,10.10
2017-11-03T15:59:44.920Z,11.07
2017-11-03T16:02:13.958Z,14.53
2017-11-03T16:04:42.226Z,15.23
2017-11-03T16:07:10.514Z,17.30
2017-11-03T16:09:38.764Z,12.50
2017-11-03T16:12:07.032Z,12.80
2017-11-03T16:14:35.304Z,9.17
2017-11-03T16:17:03.572Z,19.60
2017-11-03T16:19:32.121Z,15.70
2017-11-03T16:22:00.387Z,13.83
2017-11-03T16:24:28.659Z,15.30
2017-11-03T16:26:57.194Z,13.83
2017-11-03T16:29:25.465Z,12.93
2017-11-03T16:31:53.727Z,17.80
2017-11-03T16:34:22.011Z,11.57
2017-11-03T16:36:50.271Z,24.47
2017-11-03T16:39:18.559Z,42.17
2017-11-03T16:41:46.830Z,28.83
2017-11-03T16:44:15.087Z,13.10
2017-11-03T16:46:43.353Z,15.00
2017-11-03T16:49:11.682Z,12.93
2017-11-03T16:51:39.995Z,18.73
2017-11-03T16:54:09.121Z,16.90
2017-11-03T16:56:37.469Z,21.70
2017-11-03T16:59:05.853Z,22.47
2017-11-03T17:01:34.147Z,60.43
2017-11-03T17:04:03.484Z,31.47
2017-11-03T17:06:31.800Z,26.40
2017-11-03T17:09:00.276Z,16.63
2017-11-03T17:11:29.030Z,19.20
2017-11-03T17:13:58.268Z,46.00
2017-11-03T17:16:26.645Z,17.00
2017-11-03T17:18:55.161Z,56.03
2017-11-03T17:21:23.438Z,40.60
2017-11-03T17:23:51.745Z,16.13
2017-11-03T17:26:20.019Z,21.80
2017-11-03T17:28:48.282Z,22.50
2017-11-03T17:31:16.661Z,22.70
2017-11-03T17:33:44.924Z,23.70
2017-11-03T17:36:13.216Z,22.60
2017-11-03T17:38:41.485Z,19.20
2017-11-03T17:41:09.746Z,22.63
2017-11-03T17:43:38.029Z,22.63
2017-11-03T17:46:06.739Z,16.87
2017-11-03T17:48:35.000Z,19.60
2017-11-03T17:51:03.606Z,16.03
2017-11-03T17:53:31.872Z,24.63
2017-11-03T17:56:00.145Z,26.97
2017-11-03T17:58:28.426Z,20.80
2017-11-03T18:00:56.699Z,17.70
2017-11-03T18:03:24.972Z,16.27
2017-11-03T18:05:53.267Z,19.13
2017-11-03T18:08:21.532Z,22.17
2017-11-03T18:10:49.783Z,40.47
2017-11-03T18:13:18.084Z,22.70
2017-11-03T18:15:46.485Z,23.33
2017-11-03T18:18:14.754Z,19.20
2017-11-03T18:20:43.037Z,24.30
2017-11-03T18:23:11.296Z,19.37
2017-11-03T18:25:39.618Z,21.73
2017-11-03T18:28:08.376Z,17.33
2017-11-03T18:30:36.639Z,30.97
2017-11-03T18:33:04.911Z,23.10
2017-11-03T18:35:33.215Z,24.43
2017-11-03T18:38:01.473Z,30.47
2017-11-03T18:40:29.747Z,27.87
2017-11-03T18:42:58.063Z,18.30
2017-11-03T18:45:26.320Z,13.87
2017-11-03T18:47:54.625Z,16.73
2017-11-03T18:50:22.893Z,22.03
2017-11-03T18:52:51.152Z,21.20
2017-11-03T18:55:19.693Z,18.40
2017-11-03T18:57:47.974Z,17.00
2017-11-03T19:00:17.001Z,17.67
2017-11-03T19:02:45.304Z,19.63
2017-11-03T19:05:13.556Z,22.27
2017-11-03T19:07:41.826Z,24.43
2017-11-03T19:10:10.116Z,25.37
2017-11-03T19:12:38.387Z,20.70
2017-11-03T19:15:06.655Z,17.67
2017-11-03T19:17:34.933Z,16.30
2017-11-03T19:20:03.220Z,12.83
2017-11-03T19:22:31.504Z,18.63
2017-11-03T19:24:59.806Z,23.53
2017-11-03T19:27:28.092Z,17.97
2017-11-03T19:29:56.369Z,17.83
2017-11-03T19:32:24.668Z,21.87
2017-11-03T19:34:53.839Z,15.93
2017-11-03T19:37:22.134Z,19.80
2017-11-03T19:39:51.963Z,21.97
2017-11-03T19:42:20.260Z,18.87
2017-11-03T19:44:48.547Z,19.13
2017-11-03T19:47:16.835Z,27.43
2017-11-03T19:49:45.135Z,18.97
2017-11-03T19:52:13.391Z,20.13
2017-11-03T19:54:41.695Z,18.53
2017-11-03T19:57:09.990Z,21.60
2017-11-03T19:59:38.296Z,26.27
2017-11-03T20:02:06.578Z,23.10
2017-11-03T20:04:34.864Z,21.20
2017-11-03T20:07:03.185Z,20.10
2017-11-03T20:09:31.475Z,26.87
2017-11-03T20:11:59.834Z,23.30
2017-11-03T20:14:28.648Z,17.37
2017-11-03T20:16:56.952Z,19.70
2017-11-03T20:19:25.226Z,32.33
2017-11-03T20:21:54.699Z,21.90
2017-11-03T20:24:22.956Z,27.07
2017-11-03T20:26:51.241Z,22.97
2017-11-03T20:29:19.541Z,29.93
2017-11-03T20:31:47.820Z,29.50
2017-11-03T20:34:16.668Z,25.20
2017-11-03T20:36:44.948Z,27.20
2017-11-03T20:39:13.957Z,29.10
2017-11-03T20:41:42.342Z,27.23
2017-11-03T20:44:11.007Z,28.43
2017-11-03T20:46:41.565Z,22.70
2017-11-03T20:49:09.834Z,26.53
2017-11-03T20:51:38.103Z,20.50
2017-11-03T20:54:06.402Z,27.43
2017-11-03T20:56:34.682Z,24.80
2017-11-03T20:59:03.463Z,21.60
2017-11-03T21:01:31.737Z,25.93
2017-11-03T21:04:00.002Z,21.97
2017-11-03T21:06:28.273Z,20.63
2017-11-03T21:08:57.006Z,26.83
2017-11-03T21:11:25.301Z,23.70
2017-11-03T21:13:53.583Z,21.37
2017-11-03T21:16:23.876Z,40.30
2017-11-03T21:18:52.136Z,20.53
2017-11-03T21:21:20.686Z,22.60
2017-11-03T21:23:49.581Z,22.30
2017-11-03T21:26:17.842Z,59.47
2017-11-03T21:28:46.876Z,29.97
2017-11-03T21:31:15.169Z,20.80
2017-11-03T21:33:44.354Z,29.07
2017-11-03T21:36:12.636Z,25.23
2017-11-03T21:38:42.623Z,30.20
2017-11-03T21:41:10.894Z,58.30
2017-11-03T21:43:40.017Z,61.57
2017-11-03T21:46:08.291Z,48.13
2017-11-03T21:48:36.669Z,34.17
2017-11-03T21:51:05.308Z,37.40
2017-11-03T21:53:34.552Z,69.27
2017-11-03T21:56:03.979Z,56.97
2017-11-03T21:58:32.287Z,44.73
2017-11-03T22:01:00.699Z,47.57
2017-11-03T22:03:30.365Z,55.80
2017-11-03T22:05:58.678Z,47.70
2017-11-03T22:08:28.239Z,55.93
2017-11-03T22:10:56.518Z,62.43
2017-11-03T22:13:24.832Z,68.20
2017-11-03T22:15:53.125Z,77.10
2017-11-03T22:18:22.170Z,95.80
2017-11-03T22:20:50.447Z,102.17
2017-11-03T22:23:19.138Z,86.07
2017-11-03T22:25:47.413Z,92.07
2017-11-03T22:28:16.491Z,95.03
2017-11-03T22:30:45.188Z,72.57
2017-11-03T22:33:13.992Z,61.53
2017-11-03T22:35:42.268Z,60.33
2017-11-03T22:38:10.523Z,95.50
2017-11-03T22:40:38.817Z,90.80
2017-11-03T22:43:07.098Z,88.27
2017-11-03T22:45:35.366Z,91.20
2017-11-03T22:48:03.944Z,68.67
2017-11-03T22:50:32.224Z,77.60
2017-11-03T22:53:00.517Z,44.73
2017-11-03T22:55:29.048Z,40.93
2017-11-03T22:57:58.072Z,53.93
2017-11-03T23:00:26.331Z,102.00
2017-11-03T23:02:54.622Z,91.13
2017-11-03T23:05:22.934Z,86.40
2017-11-03T23:07:51.487Z,84.57
2017-11-03T23:10:19.745Z,75.63
2017-11-03T23:12:48.777Z,79.63
2017-11-03T23:15:17.074Z,78.23
2017-11-03T23:17:46.136Z,82.13
2017-11-03T23:20:14.402Z,70.60
2017-11-03T23:22:43.958Z,74.53
2017-11-03T23:25:12.624Z,66.20
2017-11-03T23:27:40.918Z,75.17
2017-11-03T23:30:09.176Z,72.43
2017-11-03T23:32:37.435Z,76.97
2017-11-03T23:35:05.722Z,82.73
2017-11-03T23:37:33.995Z,88.53
2017-11-03T23:40:02.291Z,89.47
2017-11-03T23:42:30.560Z,75.93
2017-11-03T23:44:58.835Z,93.83
2017-11-03T23:47:27.160Z,75.03
2017-11-03T23:49:55.422Z,84.63
2017-11-03T23:52:24.026Z,81.33
2017-11-03T23:54:52.319Z,82.23
2017-11-03T23:57:21.352Z,88.57
2017-11-03T23:59:49.630Z,81.50
